Time;durP1;ratioP1;P1;durP2;ratioP2;P2;SDS_P1;SDS_P2;PMS_P1;PMS_P2;Temp;Humidity;BMP_temperature;BMP_pressure;BME280_temperature;BME280_humidity;BME280_pressure;Samples;Min_cycle;Max_cycle;Signal;HPM_P1;HPM_P2
2022/12/21 00:02:04;;;;;;;;;;;;;;;3.16;100.00;99243.91;6181584;23;19912;-82
2022/12/21 00:04:30;;;;;;;;;;;;;;;3.13;100.00;99238.75;6284600;22;19912;-84
2022/12/21 03:17:23;;;;;;;;;;;;;;;3.66;100.00;99247.19;6093473;23;19923;-84
2022/12/21 03:19:57;;;;;;;;;;;;;;;3.63;100.00;99242.84;6093818;23;19921;-84
2022/12/21 03:22:31;;;;;;;;;;;;;;;3.57;100.00;99244.75;6093776;23;19989;-84
2022/12/21 03:25:08;;;;;;;;;;;;;;;3.59;100.00;99245.59;6093639;23;19913;-84
2022/12/21 03:27:36;;;;;;;;;;;;;;;3.55;100.00;99242.19;6093702;23;20244;-84
2022/12/21 03:30:05;;;;;;;;;;;;;;;3.53;100.00;99237.88;6092065;23;19913;-84
2022/12/21 03:32:42;;;;;;;;;;;;;;;3.52;100.00;99239.63;6093439;23;19921;-88
2022/12/21 03:35:10;;;;;;;;;;;;;;;3.45;100.00;99236.28;6093901;23;20334;-88
2022/12/21 03:37:38;;;;;;;;;;;;;;;3.45;100.00;99228.44;6092370;23;20240;-88
2022/12/21 03:40:10;;;;;;;;;;;;;;;3.39;100.00;99233.81;6093978;23;19940;-88
2022/12/21 03:42:40;;;;;;;;;;;;;;;3.37;100.00;99238.22;6093455;23;19916;-91
2022/12/21 03:45:07;;;;;;;;;;;;;;;3.38;100.00;99232.09;6091981;23;19918;-85
2022/12/21 03:47:38;;;;;;;;;;;;;;;3.34;100.00;99232.19;6093545;23;19909;-89
2022/12/21 03:50:06;;;;;;;;;;;;;;;3.28;100.00;99230.56;6093431;23;19992;-86
2022/12/21 03:52:36;;;;;;;;;;;;;;;3.29;100.00;99227.06;6093689;23;19913;-86
2022/12/21 03:55:11;;;;;;;;;;;;;;;3.25;100.00;99228.00;6091920;23;19992;-86
2022/12/21 03:57:37;;;;;;;;;;;;;;;3.21;100.00;99221.13;6093590;23;19914;-85
2022/12/21 04:00:04;;;;;;;;;;;;;;;3.18;100.00;99218.59;6091892;23;19920;-85
2022/12/21 04:02:50;;;;;;;;;;;;;;;3.09;100.00;99219.63;6093464;23;19921;-86
2022/12/21 04:05:27;;;;;;;;;;;;;;;3.09;100.00;99217.00;6093449;23;19917;-85
2022/12/21 04:07:53;;;;;;;;;;;;;;;3.05;100.00;99212.75;6093423;23;20237;-86
2022/12/21 04:10:20;;;;;;;;;;;;;;;3.02;100.00;99212.81;6093324;23;19913;-85
2022/12/21 04:12:46;;;;;;;;;;;;;;;2.98;100.00;99208.53;6092980;23;19952;-85
2022/12/21 04:15:17;;;;;;;;;;;;;;;3.01;100.00;99211.06;6091475;22;20127;-85
2022/12/21 04:17:43;;;;;;;;;;;;;;;2.93;100.00;99213.84;6093411;23;19945;-86
2022/12/21 04:20:11;;;;;;;;;;;;;;;2.96;100.00;99216.41;6093230;23;20325;-85
2022/12/21 04:28:30;;;;;;;;;;;;;;;3.00;100.00;99209.34;6061802;23;20300;-87
2022/12/21 04:30:56;;;;;;;;;;;;;;;3.12;100.00;99210.84;6078590;23;19913;-88
2022/12/21 04:33:22;;;;;;;;;;;;;;;3.20;100.00;99208.94;6091949;23;19972;-88
2022/12/21 04:38:33;;;;;;;;;;;;;;;3.19;100.00;99208.06;6093445;23;19921;-88
2022/12/21 08:59:53;;;;;;;;;;;;;;;2.89;100.00;99298.56;6142403;22;19935;-90
2022/12/21 09:02:19;;;;;;;;;;;;;;;2.91;100.00;99299.41;6153221;23;19930;-92
2022/12/21 09:04:47;;;;;;;;;;;;;;;2.89;100.00;99301.19;6256870;22;19940;-92
2022/12/21 09:10:26;;;;;;;;;;;;;;;2.85;100.00;99305.59;6137550;23;19940;-95
2022/12/21 09:16:05;;;;;;;;;;;;;;;2.81;100.00;99313.53;6063821;23;19937;-91
2022/12/21 09:18:43;;;;;;;;;;;;;;;;;;;;;
2022/12/21 09:27:14;;;;;;;;;;;;;;;3.98;100.00;99326.81;6152099;23;19917;-90
2022/12/21 09:29:40;;;;;;;;;;;;;;;4.30;100.00;99319.94;6150826;23;19917;-88
2022/12/21 09:32:05;;;;;;;;;;;;;;;4.52;100.00;99329.00;6152696;23;19913;-88
2022/12/21 09:34:30;;;;;;;;;;;;;;;4.69;100.00;99332.94;6153015;23;20240;-88
2022/12/21 09:36:56;;;;;;;;;;;;;;;4.83;100.00;99333.44;6281979;22;19919;-88
2022/12/21 09:39:38;;;;;;;;;;;;;;;4.95;100.00;99336.66;6152331;23;20019;-87
2022/12/21 09:42:06;;;;;;;;;;;;;;;5.07;100.00;99328.41;6152977;22;20313;-88
2022/12/21 09:45:09;;;;;;;;;;;;;;;5.15;100.00;99338.72;6150774;23;19970;-88
2022/12/21 09:47:53;;;;;;;;;;;;;;;5.24;100.00;99344.56;6185832;23;19935;-87
2022/12/21 09:50:23;;;;;;;;;;;;;;;5.33;100.00;99353.09;6155257;22;19919;-88
2022/12/21 09:53:00;;;;;;;;;;;;;;;5.38;100.00;99354.69;6152440;23;19931;-90
2022/12/21 09:55:37;;;;;;;;;;;;;;;5.45;100.00;99356.22;6152443;22;19988;-89
2022/12/21 09:58:11;;;;;;;;;;;;;;;5.51;100.00;99351.72;6151230;23;19934;-89
2022/12/21 10:00:40;;;;;;;;;;;;;;;5.56;100.00;99361.19;6152349;22;20324;-82
2022/12/21 10:03:21;;;;;;;;;;;;;;;5.61;100.00;99364.53;6152412;23;19913;-89
2022/12/21 10:05:59;;;;;;;;;;;;;;;5.66;100.00;99361.78;6256081;22;19943;-87
2022/12/21 10:08:40;;;;;;;;;;;;;;;;;;;;;
2022/12/21 10:11:19;;;;;;;;;;;;;;;5.75;100.00;99365.91;6152448;23;20280;-89
2022/12/21 10:13:44;;;;;;;;;;;;;;;5.80;100.00;99369.25;6151010;22;19912;-88
2022/12/21 10:16:12;;;;;;;;;;;;;;;5.84;100.00;99357.75;6152877;23;20210;-91
2022/12/21 10:18:43;;;;;;;;;;;;;;;5.88;100.00;99355.88;6255619;22;19912;-89
2022/12/21 10:21:51;;;;;;;;;;;;;;;5.90;100.00;99349.66;6152459;22;19913;-89
2022/12/21 10:24:22;;;;;;;;;;;;;;;5.96;100.00;99356.50;6184356;23;19920;-89
2022/12/21 10:26:51;;;;;;;;;;;;;;;5.98;100.00;99355.59;6267018;22;20334;-89
2022/12/21 10:29:19;;;;;;;;;;;;;;;6.00;100.00;99356.41;6253866;22;19920;-88
2022/12/21 10:31:46;;;;;;;;;;;;;;;6.05;100.00;99358.88;6152687;22;19952;-89
2022/12/21 10:34:24;;;;;;;;;;;;;;;6.08;100.00;99353.53;6152552;22;19955;-89
2022/12/21 10:36:53;;;;;;;;;;;;;;;6.12;100.00;99349.03;6255706;22;19920;-86
2022/12/21 10:39:18;;;;;;;;;;;;;;;6.14;100.00;99347.19;6152525;22;19913;-86
2022/12/21 10:41:50;;;;;;;;;;;;;;;6.16;100.00;99351.53;6152304;23;19962;-86
2022/12/21 10:44:16;;;;;;;;;;;;;;;6.18;100.00;99339.16;6254117;22;19913;-88
2022/12/21 10:46:41;;;;;;;;;;;;;;;6.22;100.00;99334.66;6152670;23;19921;-88
2022/12/21 10:49:13;;;;;;;;;;;;;;;6.24;100.00;99342.50;6255193;22;20445;-87
2022/12/21 10:51:38;;;;;;;;;;;;;;;6.26;100.00;99336.31;6152362;23;19912;-89
2022/12/21 10:54:26;;;;;;;;;;;;;;;6.29;100.00;99330.09;6152442;23;20329;-85
2022/12/21 10:56:52;;;;;;;;;;;;;;;6.31;100.00;99331.75;6184941;23;20046;-86
2022/12/21 10:59:25;;;;;;;;;;;;;;;6.34;100.00;99325.53;6154628;22;20328;-87
2022/12/21 11:01:50;;;;;;;;;;;;;;;6.36;100.00;99321.91;6281201;22;20320;-87
2022/12/21 11:04:22;;;;;;;;;;;;;;;6.39;100.00;99325.38;6255084;22;19944;-87
2022/12/21 11:06:54;;;;;;;;;;;;;;;6.41;100.00;99320.91;6255564;22;19917;-87
2022/12/21 11:09:37;;;;;;;;;;;;;;;6.36;100.00;99327.19;6152277;22;19920;-87
2022/12/21 11:12:19;;;;;;;;;;;;;;;5.36;100.00;99324.13;6152108;22;19917;-88
2022/12/21 11:14:44;;;;;;;;;;;;;;;4.96;100.00;99312.97;6150699;22;20626;-87
2022/12/21 11:17:28;;;;;;;;;;;;;;;4.85;100.00;99322.88;6280883;22;19909;-87
2022/12/21 11:20:14;;;;;;;;;;;;;;;4.69;100.00;99319.81;6152220;22;20243;-87
2022/12/21 11:22:41;;;;;;;;;;;;;;;4.53;100.00;99314.97;6152176;22;20320;-88
2022/12/21 11:25:12;;;;;;;;;;;;;;;4.47;100.00;99309.88;6152263;23;19913;-87
2022/12/21 11:27:43;;;;;;;;;;;;;;;4.34;100.00;99317.22;6253272;22;19909;-88
2022/12/21 11:30:11;;;;;;;;;;;;;;;4.26;100.00;99320.91;6152285;22;19913;-86
2022/12/21 11:32:42;;;;;;;;;;;;;;;4.21;100.00;99313.13;6151993;23;19962;-89
2022/12/21 11:35:17;;;;;;;;;;;;;;;4.21;100.00;99304.41;6152297;22;19958;-88
2022/12/21 11:37:44;;;;;;;;;;;;;;;4.06;100.00;99309.13;6152065;23;19967;-88
2022/12/21 11:40:20;;;;;;;;;;;;;;;4.04;100.00;99305.69;6152540;23;19992;-87
2022/12/21 11:42:51;;;;;;;;;;;;;;;3.96;100.00;99299.78;6150341;23;19935;-89
2022/12/21 11:45:35;;;;;;;;;;;;;;;3.92;100.00;99300.75;6152371;22;19991;-89
2022/12/21 11:48:19;;;;;;;;;;;;;;;3.86;100.00;99296.53;6254951;22;19908;-88
2022/12/21 11:50:45;;;;;;;;;;;;;;;3.81;100.00;99291.38;6151922;23;20324;-88
2022/12/21 11:53:29;;;;;;;;;;;;;;;3.80;100.00;99294.03;6151977;23;19919;-87
2022/12/21 11:56:09;;;;;;;;;;;;;;;3.77;100.00;99289.72;6151783;23;20255;-88
2022/12/21 11:58:49;;;;;;;;;;;;;;;3.69;100.00;99296.03;6150381;23;19966;-87
2022/12/21 12:01:33;;;;;;;;;;;;;;;3.69;100.00;99294.28;6254899;22;20276;-88
2022/12/21 12:04:01;;;;;;;;;;;;;;;3.64;100.00;99297.00;6254806;22;19927;-88
2022/12/21 12:06:30;;;;;;;;;;;;;;;3.57;100.00;99287.53;6152091;23;19948;-88
2022/12/21 12:09:13;;;;;;;;;;;;;;;3.57;100.00;99286.69;6151877;23;20014;-88
2022/12/21 12:11:47;;;;;;;;;;;;;;;3.53;100.00;99282.44;6151914;23;19913;-87
2022/12/21 12:14:18;;;;;;;;;;;;;;;3.48;100.00;99289.50;6150946;22;19913;-88
2022/12/21 12:16:47;;;;;;;;;;;;;;;3.48;100.00;99287.75;6151809;23;19913;-87
2022/12/21 12:19:21;;;;;;;;;;;;;;;3.44;100.00;99294.81;6151845;23;20241;-87
2022/12/21 12:21:49;;;;;;;;;;;;;;;3.44;100.00;99284.31;6254910;22;20082;-88
2022/12/21 12:24:29;;;;;;;;;;;;;;;3.39;100.00;99285.34;6151878;23;20345;-86
2022/12/21 12:27:02;;;;;;;;;;;;;;;3.36;100.00;99291.50;6152065;23;19913;-87
2022/12/21 12:29:46;;;;;;;;;;;;;;;3.34;100.00;99295.91;6150398;22;19920;-87
2022/12/21 12:32:29;;;;;;;;;;;;;;;3.31;100.00;99297.75;6151771;23;19913;-88
2022/12/21 12:35:10;;;;;;;;;;;;;;;3.27;100.00;99303.03;6151242;23;20320;-88
2022/12/21 12:37:47;;;;;;;;;;;;;;;3.26;100.00;99305.69;6151651;23;19940;-87
2022/12/21 12:40:12;;;;;;;;;;;;;;;3.20;100.00;99305.81;6254494;22;19913;-87
2022/12/21 12:42:40;;;;;;;;;;;;;;;3.21;100.00;99303.16;6253027;22;19944;-87
2022/12/21 12:45:28;;;;;;;;;;;;;;;3.18;100.00;99299.75;6151709;23;19955;-87
2022/12/21 12:47:56;;;;;;;;;;;;;;;3.15;100.00;99299.81;6254553;22;19919;-87
2022/12/21 12:50:21;;;;;;;;;;;;;;;3.13;100.00;99299.84;6151852;23;19919;-87
2022/12/21 12:52:59;;;;;;;;;;;;;;;3.14;100.00;99295.47;6151625;23;19913;-88
2022/12/21 12:55:24;;;;;;;;;;;;;;;3.12;100.00;99292.88;6151764;22;19944;-88
2022/12/21 12:57:49;;;;;;;;;;;;;;;3.07;100.00;99292.97;6150036;23;19912;-88
2022/12/21 13:00:16;;;;;;;;;;;;;;;3.11;100.00;99290.28;6254377;22;19916;-86
2022/12/21 13:03:00;;;;;;;;;;;;;;;3.04;100.00;99297.41;6151501;23;19913;-87
2022/12/21 13:06:01;;;;;;;;;;;;;;;3.04;100.00;99297.41;6151720;23;19912;-86
2022/12/21 13:08:45;;;;;;;;;;;;;;;2.99;100.00;99302.72;6254271;22;20240;-87
2022/12/21 13:11:26;;;;;;;;;;;;;;;3.00;100.00;99296.59;6254099;22;19966;-87
2022/12/21 13:14:00;;;;;;;;;;;;;;;2.98;100.00;99293.13;6149838;23;19912;-87
2022/12/21 13:16:39;;;;;;;;;;;;;;;2.99;100.00;99294.88;6151457;23;19916;-87
2022/12/21 13:19:06;;;;;;;;;;;;;;;2.94;100.00;99301.09;6151276;23;19936;-87
2022/12/21 13:21:34;;;;;;;;;;;;;;;2.94;100.00;99288.88;6151337;22;19917;-87
2022/12/21 13:24:04;;;;;;;;;;;;;;;2.94;100.00;99295.88;6151644;23;19924;-88
2022/12/21 13:26:39;;;;;;;;;;;;;;;2.93;100.00;99291.50;6151626;22;20345;-87
2022/12/21 13:29:09;;;;;;;;;;;;;;;2.89;100.00;99290.72;6149685;23;19913;-86
2022/12/21 13:31:52;;;;;;;;;;;;;;;2.88;100.00;99296.84;6151481;23;19989;-86
2022/12/21 13:34:30;;;;;;;;;;;;;;;2.91;100.00;99294.16;6151342;23;19913;-87
2022/12/21 13:36:56;;;;;;;;;;;;;;;2.84;100.00;99297.78;6151224;23;19909;-89
2022/12/21 13:39:28;;;;;;;;;;;;;;;2.86;100.00;99306.47;6151323;22;19912;-89
2022/12/21 13:41:56;;;;;;;;;;;;;;;2.86;100.00;99306.47;6151394;22;19915;-87
2022/12/21 13:44:35;;;;;;;;;;;;;;;2.87;100.00;99298.59;6149689;22;19940;-88
2022/12/21 13:47:01;;;;;;;;;;;;;;;2.86;100.00;99306.47;6152661;23;19919;-87
2022/12/21 13:49:26;;;;;;;;;;;;;;;2.82;100.00;99303.03;6256345;22;19913;-89
2022/12/21 13:51:53;;;;;;;;;;;;;;;2.82;100.00;99299.56;6152615;23;19923;-86
2022/12/21 13:54:31;;;;;;;;;;;;;;;2.85;100.00;99305.59;6152551;23;20265;-86
2022/12/21 13:57:15;;;;;;;;;;;;;;;2.83;100.00;99317.00;6152727;22;20336;-91
2022/12/21 13:59:43;;;;;;;;;;;;;;;2.85;100.00;99325.69;6254742;22;19923;-87
2022/12/21 14:02:21;;;;;;;;;;;;;;;2.80;100.00;99320.53;6152372;23;19983;-90
2022/12/21 14:04:48;;;;;;;;;;;;;;;3.00;100.00;99314.03;6152422;23;19913;-88
2022/12/21 14:07:25;;;;;;;;;;;;;;;3.14;100.00;99309.41;6152236;23;20451;-90
2022/12/21 14:09:53;;;;;;;;;;;;;;;3.21;100.00;99324.09;6152390;23;19919;-86
2022/12/21 14:12:34;;;;;;;;;;;;;;;3.52;100.00;99309.50;6255772;22;19913;-88
2022/12/21 14:15:02;;;;;;;;;;;;;;;3.91;100.00;99307.75;6152338;23;19917;-86
2022/12/21 14:17:29;;;;;;;;;;;;;;;4.24;100.00;99302.56;6152316;23;19909;-86
2022/12/21 14:19:55;;;;;;;;;;;;;;;4.47;100.00;99309.03;6152161;23;20262;-85
2022/12/21 14:22:35;;;;;;;;;;;;;;;4.64;100.00;99308.56;6152393;23;19947;-85
2022/12/21 14:25:15;;;;;;;;;;;;;;;4.78;100.00;99297.72;6152646;23;19913;-87
2022/12/21 14:30:53;;;;;;;;;;;;;;;5.02;100.00;99291.78;6092346;23;19920;-86
2022/12/21 14:33:21;;;;;;;;;;;;;;;5.12;100.00;99284.50;6152163;23;19913;-87
2022/12/21 14:36:06;;;;;;;;;;;;;;;5.19;100.00;99275.56;6152280;22;19912;-86
2022/12/21 14:38:32;;;;;;;;;;;;;;;5.30;100.00;99284.88;6152283;22;20312;-87
2022/12/21 14:41:17;;;;;;;;;;;;;;;5.33;100.00;99279.53;6152496;23;19940;-87
2022/12/21 14:44:04;;;;;;;;;;;;;;;5.39;100.00;99285.50;6150761;22;19968;-87
2022/12/21 14:46:31;;;;;;;;;;;;;;;5.44;100.00;99277.44;6152350;23;19919;-87
2022/12/21 14:49:31;;;;;;;;;;;;;;;5.51;100.00;99294.75;6152111;23;19919;-90
2022/12/21 14:51:56;;;;;;;;;;;;;;;5.57;100.00;99294.59;6169066;22;20386;-88
2022/12/21 14:54:25;;;;;;;;;;;;;;;5.61;100.00;99295.34;6152166;23;19917;-87
2022/12/21 14:57:19;;;;;;;;;;;;;;;5.67;100.00;99296.94;6152180;23;19909;-86
2022/12/21 14:59:48;;;;;;;;;;;;;;;5.70;100.00;99289.81;6157542;22;19950;-86
2022/12/21 15:02:25;;;;;;;;;;;;;;;5.74;100.00;99291.41;6253859;22;19913;-86
2022/12/21 15:04:53;;;;;;;;;;;;;;;5.77;100.00;99290.47;6151815;23;19912;-85
2022/12/21 15:07:31;;;;;;;;;;;;;;;5.82;100.00;99288.56;6152086;23;19916;-85
2022/12/21 15:10:00;;;;;;;;;;;;;;;5.85;100.00;99277.94;6254925;22;19912;-84
2022/12/21 15:12:31;;;;;;;;;;;;;;;5.88;100.00;99269.97;6151398;23;19913;-85
2022/12/21 15:15:14;;;;;;;;;;;;;;;5.90;100.00;99281.28;6149998;23;19982;-86
2022/12/21 15:17:39;;;;;;;;;;;;;;;5.95;100.00;99289.91;6150779;23;19908;-86
2022/12/21 15:20:05;;;;;;;;;;;;;;;5.98;100.00;99289.84;6150390;23;19919;-86
2022/12/21 15:22:33;;;;;;;;;;;;;;;6.01;100.00;99273.09;6253410;22;19916;-85
2022/12/21 15:25:06;;;;;;;;;;;;;;;6.04;100.00;99273.00;6150257;23;19912;-85
2022/12/21 15:27:54;;;;;;;;;;;;;;;6.09;100.00;99270.22;6150671;22;19912;-88
2022/12/21 15:30:31;;;;;;;;;;;;;;;6.11;100.00;99274.53;6152007;22;19923;-86
2022/12/21 15:33:19;;;;;;;;;;;;;;;6.15;100.00;99286.66;6151007;22;19991;-86
2022/12/21 15:35:49;;;;;;;;;;;;;;;6.17;100.00;99279.59;6155712;22;20094;-88
2022/12/21 15:38:24;;;;;;;;;;;;;;;6.20;100.00;99278.63;6254447;22;19924;-86
2022/12/21 15:41:00;;;;;;;;;;;;;;;6.23;100.00;99278.50;6152047;23;20236;-84
2022/12/21 15:43:29;;;;;;;;;;;;;;;6.25;100.00;99281.94;6253469;22;19919;-87
2022/12/21 15:46:04;;;;;;;;;;;;;;;6.27;100.00;99290.66;6151919;23;20034;-85
2022/12/21 15:48:36;;;;;;;;;;;;;;;6.29;100.00;99288.84;6254547;22;19920;-85
2022/12/21 15:51:09;;;;;;;;;;;;;;;6.31;100.00;99276.47;6151833;23;20236;-85
2022/12/21 15:53:34;;;;;;;;;;;;;;;6.33;100.00;99274.69;6151322;23;20283;-87
2022/12/21 15:56:00;;;;;;;;;;;;;;;6.35;100.00;99269.34;6254165;22;19917;-87
2022/12/21 15:58:32;;;;;;;;;;;;;;;6.36;100.00;99264.03;6277696;22;19986;-85
2022/12/21 16:01:06;;;;;;;;;;;;;;;6.39;100.00;99263.06;6151649;22;19916;-84
2022/12/21 16:03:33;;;;;;;;;;;;;;;5.91;100.00;99261.13;6151584;22;19928;-86
2022/12/21 16:06:25;;;;;;;;;;;;;;;5.15;100.00;99266.03;6151367;22;19913;-84
2022/12/21 16:08:51;;;;;;;;;;;;;;;4.86;100.00;99265.09;6152102;22;19917;-88
2022/12/21 16:11:24;;;;;;;;;;;;;;;4.76;100.00;99261.00;6150999;23;20232;-84
2022/12/21 16:13:50;;;;;;;;;;;;;;;4.62;100.00;99265.78;6150310;23;19982;-85
2022/12/21 16:16:16;;;;;;;;;;;;;;;4.47;100.00;99262.66;6151530;23;20325;-85
2022/12/21 16:18:42;;;;;;;;;;;;;;;4.38;100.00;99262.03;6151343;23;19920;-86
2022/12/21 16:21:17;;;;;;;;;;;;;;;4.32;100.00;99252.56;6151630;23;20320;-85
2022/12/21 16:23:44;;;;;;;;;;;;;;;4.27;100.00;99251.81;6151402;22;19916;-85
2022/12/21 16:26:21;;;;;;;;;;;;;;;4.19;100.00;99252.00;6151203;23;19913;-86
2022/12/21 16:28:50;;;;;;;;;;;;;;;4.15;100.00;99251.22;6150291;23;19912;-85
2022/12/21 16:31:28;;;;;;;;;;;;;;;4.06;100.00;99246.22;6150876;23;20312;-86
2022/12/21 16:33:55;;;;;;;;;;;;;;;4.02;100.00;99244.59;6254051;22;19919;-91
2022/12/21 16:36:24;;;;;;;;;;;;;;;3.97;100.00;99241.19;6151208;22;19948;-88
2022/12/21 16:38:49;;;;;;;;;;;;;;;3.98;100.00;99242.94;6254387;22;19936;-89
2022/12/21 16:41:16;;;;;;;;;;;;;;;3.88;100.00;99246.66;6254685;22;20213;-86
2022/12/21 16:43:45;;;;;;;;;;;;;;;3.84;100.00;99239.78;6252809;22;19914;-87
2022/12/21 16:46:43;;;;;;;;;;;;;;;3.79;100.00;99237.25;6151749;23;19924;-92
2022/12/21 16:49:38;;;;;;;;;;;;;;;3.76;100.00;99234.72;6154254;22;20347;-87
2022/12/21 16:52:04;;;;;;;;;;;;;;;3.75;100.00;99230.38;6178645;23;19952;-87
2022/12/21 16:54:39;;;;;;;;;;;;;;;3.70;100.00;99227.00;6151046;23;19944;-83
2022/12/21 16:57:09;;;;;;;;;;;;;;;3.66;100.00;99234.06;6151288;23;19913;-85
2022/12/21 16:59:34;;;;;;;;;;;;;;;3.63;100.00;99231.53;6149868;22;19949;-85
2022/12/21 17:02:14;;;;;;;;;;;;;;;3.57;100.00;99231.66;6279665;22;19947;-86
2022/12/21 17:04:47;;;;;;;;;;;;;;;3.57;100.00;99223.81;6151234;23;19926;-88
2022/12/21 17:07:21;;;;;;;;;;;;;;;3.56;100.00;99216.88;6151199;23;19916;-89
2022/12/21 17:10:05;;;;;;;;;;;;;;;3.54;100.00;99224.75;6151185;23;20279;-85
2022/12/21 17:12:38;;;;;;;;;;;;;;;3.47;100.00;99219.69;6252884;22;20364;-89
2022/12/21 17:15:21;;;;;;;;;;;;;;;3.41;100.00;99220.69;6253636;22;19936;-85
2022/12/21 17:17:46;;;;;;;;;;;;;;;3.40;100.00;99209.34;6151241;22;19913;-85
2022/12/21 17:20:17;;;;;;;;;;;;;;;3.40;100.00;99206.72;6151481;22;20237;-86
2022/12/21 17:23:00;;;;;;;;;;;;;;;3.33;100.00;99206.91;6151634;23;19917;-85
2022/12/21 17:25:44;;;;;;;;;;;;;;;3.35;100.00;99195.50;6150776;23;19920;-89
2022/12/21 17:28:10;;;;;;;;;;;;;;;3.28;100.00;99204.38;6149470;23;19991;-88
2022/12/21 17:30:37;;;;;;;;;;;;;;;3.26;100.00;99200.94;6254336;22;19962;-88
2022/12/21 17:33:04;;;;;;;;;;;;;;;3.25;100.00;99204.44;6148614;22;19917;-86
2022/12/21 17:35:30;;;;;;;;;;;;;;;3.24;100.00;99198.34;6255921;22;20321;-86
2022/12/21 17:37:58;;;;;;;;;;;;;;;3.23;100.00;99199.25;6280208;22;19909;-87
2022/12/21 17:40:31;;;;;;;;;;;;;;;3.18;100.00;99200.25;6152186;22;19913;-88
2022/12/21 17:42:59;;;;;;;;;;;;;;;3.16;100.00;99204.63;6149783;23;19943;-87
2022/12/21 17:45:25;;;;;;;;;;;;;;;3.13;100.00;99199.47;6151360;23;19940;-87
2022/12/21 17:47:51;;;;;;;;;;;;;;;3.12;100.00;99192.53;6151529;23;19954;-86
2022/12/21 17:50:35;;;;;;;;;;;;;;;3.06;100.00;99191.78;6150757;22;20328;-90
2022/12/21 17:59:21;;;;;;;;;;;;;;;;;;;;;
2022/12/21 18:01:46;;;;;;;;;;;;;;;2.98;100.00;99177.97;6123431;23;19993;-86
2022/12/21 18:04:19;;;;;;;;;;;;;;;2.97;100.00;99178.00;6145945;23;20306;-87
2022/12/21 18:06:47;;;;;;;;;;;;;;;2.97;100.00;99171.03;6122195;23;19913;-93
2022/12/21 18:09:17;;;;;;;;;;;;;;;3.22;100.00;99168.75;6120624;23;19917;-85
2022/12/21 18:12:11;;;;;;;;;;;;;;;3.27;100.00;99168.59;6121826;23;19913;-89
2022/12/21 18:15:05;;;;;;;;;;;;;;;;;;;;;
2022/12/21 18:18:08;;;;;;;;;;;;;;;3.09;100.00;99162.03;6121851;23;20380;-93
2022/12/21 18:23:55;;;;;;;;;;;;;;;2.94;100.00;99151.94;6072181;23;19917;-91
2022/12/21 18:26:31;;;;;;;;;;;;;;;2.91;100.00;99137.13;6119776;23;19913;-89
2022/12/21 18:28:57;;;;;;;;;;;;;;;3.56;100.00;99140.88;6116851;23;19948;-89
2022/12/21 18:31:32;;;;;;;;;;;;;;;3.52;100.00;99150.56;6117974;23;20016;-89
2022/12/21 18:34:36;;;;;;;;;;;;;;;3.29;100.00;99148.50;6119490;23;20392;-87
2022/12/21 18:39:49;;;;;;;;;;;;;;;3.12;100.00;99142.78;6139512;22;19920;-87
2022/12/21 18:42:21;;;;;;;;;;;;;;;3.03;100.00;99138.59;6123412;23;19919;-87
2022/12/21 18:45:28;;;;;;;;;;;;;;;;;;;;;
2022/12/21 18:48:11;;;;;;;;;;;;;;;2.94;100.00;99124.00;6160650;23;19957;-88
2022/12/21 18:50:47;;;;;;;;;;;;;;;2.94;100.00;99131.00;6123694;23;19916;-91
2022/12/21 18:53:22;;;;;;;;;;;;;;;2.95;100.00;99127.47;6149528;23;19951;-87
2022/12/21 18:55:53;;;;;;;;;;;;;;;2.96;100.00;99119.56;6151437;23;20252;-91
2022/12/21 18:58:38;;;;;;;;;;;;;;;2.90;100.00;99125.81;6149892;23;19920;-91
2022/12/21 19:01:27;;;;;;;;;;;;;;;2.96;100.00;99116.09;6124824;23;19912;-88
2022/12/21 19:06:49;;;;;;;;;;;;;;;3.25;100.00;99111.03;6263198;22;19919;-93
2022/12/21 19:09:38;;;;;;;;;;;;;;;;;;;;;
2022/12/21 19:12:26;;;;;;;;;;;;;;;3.74;100.00;99106.34;6276980;22;19994;-91
2022/12/21 19:15:01;;;;;;;;;;;;;;;;;;;;;
2022/12/21 19:17:42;;;;;;;;;;;;;;;4.38;100.00;99091.53;6277635;22;20002;-90
2022/12/21 19:20:29;;;;;;;;;;;;;;;4.60;100.00;99083.91;6249141;22;19915;-91
2022/12/21 19:22:57;;;;;;;;;;;;;;;4.78;100.00;99083.34;6275367;22;20228;-90
2022/12/21 19:25:24;;;;;;;;;;;;;;;4.89;100.00;99077.75;6250630;22;19927;-86
2022/12/21 19:28:21;;;;;;;;;;;;;;;5.00;100.00;99069.56;6274258;22;19945;-88
2022/12/21 19:30:52;;;;;;;;;;;;;;;5.13;100.00;99060.38;6248741;22;19918;-88
2022/12/21 19:33:25;;;;;;;;;;;;;;;5.23;100.00;99059.19;6247604;22;20283;-82
2022/12/21 19:36:10;;;;;;;;;;;;;;;;;;;;;
2022/12/21 19:41:47;;;;;;;;;;;;;;;5.44;100.00;99054.09;6229030;22;20328;-89
2022/12/21 19:44:14;;;;;;;;;;;;;;;5.54;100.00;99054.69;6274061;22;19969;-89
2022/12/21 19:46:41;;;;;;;;;;;;;;;5.61;100.00;99053.53;6275992;22;19918;-86
2022/12/21 19:49:26;;;;;;;;;;;;;;;5.68;100.00;99047.19;6250408;22;19915;-88
2022/12/21 19:51:51;;;;;;;;;;;;;;;5.75;100.00;99051.28;6274530;22;20316;-86
2022/12/21 19:54:20;;;;;;;;;;;;;;;5.81;100.00;99051.09;6275889;22;20038;-83
2022/12/21 19:56:49;;;;;;;;;;;;;;;5.86;100.00;99058.81;6249162;22;19915;-89
2022/12/21 19:59:20;;;;;;;;;;;;;;;5.89;100.00;99042.94;6274382;22;20243;-88
2022/12/21 20:01:49;;;;;;;;;;;;;;;5.95;100.00;99050.59;6249886;22;19915;-88
2022/12/21 20:04:16;;;;;;;;;;;;;;;6.00;100.00;99042.59;6276154;22;19933;-90
2022/12/21 20:06:42;;;;;;;;;;;;;;;6.04;100.00;99033.66;6277415;22;20320;-86
2022/12/21 20:09:20;;;;;;;;;;;;;;;6.07;100.00;99036.16;6277123;22;19912;-84
2022/12/21 20:11:46;;;;;;;;;;;;;;;6.12;100.00;99028.13;6277550;22;19922;-94
2022/12/21 20:14:24;;;;;;;;;;;;;;;6.20;100.00;99036.56;6275026;22;19994;-93
2022/12/21 20:16:52;;;;;;;;;;;;;;;6.23;100.00;99027.72;6277595;22;19982;-90
2022/12/21 20:19:18;;;;;;;;;;;;;;;6.24;100.00;99022.41;6250122;22;19917;-87
2022/12/21 20:21:43;;;;;;;;;;;;;;;6.24;100.00;99011.00;6249910;22;19918;-89
2022/12/21 20:24:09;;;;;;;;;;;;;;;6.26;100.00;99010.03;6276993;22;20299;-84
2022/12/21 20:26:34;;;;;;;;;;;;;;;6.28;100.00;99008.22;6250201;22;19914;-86
2022/12/21 20:29:01;;;;;;;;;;;;;;;6.65;100.00;99011.19;6248269;22;19933;-86
2022/12/21 20:31:47;;;;;;;;;;;;;;;6.31;100.00;99001.97;6274915;22;19919;-89
2022/12/21 20:34:15;;;;;;;;;;;;;;;5.19;100.00;98994.50;6276291;22;19945;-86
2022/12/21 20:36:44;;;;;;;;;;;;;;;4.93;100.00;98992.75;6249294;22;19911;-88
2022/12/21 20:39:13;;;;;;;;;;;;;;;4.71;100.00;98995.22;6276169;22;19912;-90
2022/12/21 20:45:06;;;;;;;;;;;;;;;4.44;100.00;98997.78;6240172;22;20279;-91
2022/12/21 20:47:34;;;;;;;;;;;;;;;4.33;100.00;99007.72;6248071;22;19998;-89
2022/12/21 20:50:06;;;;;;;;;;;;;;;4.24;100.00;98997.50;6245091;22;19912;-90
2022/12/21 20:53:00;;;;;;;;;;;;;;;4.19;100.00;98998.50;6248192;22;19947;-89
2022/12/21 20:58:31;;;;;;;;;;;;;;;4.01;100.00;98988.56;6276423;22;20243;-92
2022/12/21 21:01:10;;;;;;;;;;;;;;;3.94;100.00;98989.63;6248033;22;19915;-91
2022/12/21 21:03:35;;;;;;;;;;;;;;;3.90;100.00;98982.75;6248942;22;19912;-89
2022/12/21 21:06:00;;;;;;;;;;;;;;;3.82;100.00;98988.22;6249064;22;19911;-90
2022/12/21 21:08:37;;;;;;;;;;;;;;;3.81;100.00;98982.13;6249568;22;20330;-93
2022/12/21 21:13:53;;;;;;;;;;;;;;;3.66;100.00;98982.53;6275923;22;19918;-95
2022/12/21 21:16:37;;;;;;;;;;;;;;;3.65;100.00;98983.44;6277274;22;19919;-93
2022/12/21 21:19:18;;;;;;;;;;;;;;;3.58;100.00;98974.03;6250569;22;20319;-86
2022/12/21 21:24:27;;;;;;;;;;;;;;;3.60;100.00;98969.59;6275879;22;20457;-91
2022/12/21 21:26:52;;;;;;;;;;;;;;;3.56;100.00;98968.00;6250508;22;19911;-90
2022/12/21 21:29:18;;;;;;;;;;;;;;;3.54;100.00;98964.53;6246710;22;19911;-87
2022/12/21 21:31:44;;;;;;;;;;;;;;;3.50;100.00;98958.53;6248137;22;19978;-90
2022/12/21 21:34:26;;;;;;;;;;;;;;;3.45;100.00;98955.19;6276389;22;20280;-91
2022/12/21 21:36:51;;;;;;;;;;;;;;;3.41;100.00;98964.84;6249513;22;19907;-93
2022/12/21 21:42:22;;;;;;;;;;;;;;;3.42;100.00;98956.09;6276771;22;19938;-90
2022/12/21 21:44:51;;;;;;;;;;;;;;;3.41;100.00;98954.38;6275034;22;19986;-87
2022/12/21 21:47:43;;;;;;;;;;;;;;;3.38;100.00;98944.00;6276542;22;19911;-89
2022/12/21 21:50:29;;;;;;;;;;;;;;;3.34;100.00;98952.84;6249391;22;19916;-95
2022/12/21 21:52:57;;;;;;;;;;;;;;;3.37;100.00;98958.00;6278172;22;20378;-91
2022/12/21 21:58:43;;;;;;;;;;;;;;;3.27;100.00;98952.16;6274932;22;20384;-95
2022/12/21 22:01:45;;;;;;;;;;;;;;;;;;;;;